createdAt,value
2022-08-24T00:00:37.729Z,19.98
2022-08-24T00:02:11.879Z,19.97
2022-08-24T00:03:45.786Z,19.98
2022-08-24T00:05:20.700Z,19.97
2022-08-24T00:06:53.096Z,19.99
2022-08-24T00:08:25.573Z,19.97
2022-08-24T00:09:58.131Z,19.97
2022-08-24T00:11:30.266Z,19.96
2022-08-24T00:13:02.433Z,19.95
2022-08-24T00:14:34.675Z,19.94
2022-08-24T00:16:08.518Z,19.95
2022-08-24T00:17:41.148Z,19.93
2022-08-24T00:19:13.409Z,19.96
2022-08-24T00:20:46.009Z,19.97
2022-08-24T00:22:18.211Z,19.97
2022-08-24T00:23:50.320Z,19.96
2022-08-24T00:25:22.424Z,19.93
2022-08-24T00:26:55.070Z,19.93
2022-08-24T00:28:27.217Z,19.92
2022-08-24T00:29:59.247Z,19.91
2022-08-24T02:53:30.377Z,19.91
2022-08-24T02:55:02.477Z,19.92
2022-08-24T02:56:34.833Z,19.87
2022-08-24T02:58:07.365Z,19.83
2022-08-24T02:59:40.134Z,19.80
2022-08-24T03:01:13.623Z,19.81
2022-08-24T03:02:50.319Z,19.75
2022-08-24T03:04:22.903Z,19.74
2022-08-24T03:05:54.966Z,19.70
2022-08-24T03:07:26.997Z,19.67
2022-08-24T03:08:59.013Z,19.65
2022-08-24T03:10:31.365Z,19.64
2022-08-24T03:12:04.238Z,19.64
2022-08-24T03:47:15.422Z,19.40
2022-08-24T03:48:49.049Z,19.36
2022-08-24T03:50:21.473Z,19.39
2022-08-24T03:51:53.718Z,19.38
2022-08-24T03:53:25.929Z,19.36
2022-08-24T03:54:58.018Z,19.34
2022-08-24T05:13:58.975Z,20.19
2022-08-24T05:15:31.728Z,20.18
2022-08-24T05:17:04.018Z,20.19
2022-08-24T05:18:36.226Z,20.21
2022-08-24T05:20:09.749Z,20.26
2022-08-24T05:21:44.692Z,20.26
2022-08-24T05:23:16.930Z,20.30
2022-08-24T05:24:49.304Z,20.34
2022-08-24T05:26:25.969Z,20.40
2022-08-24T05:27:58.606Z,20.41
2022-08-24T05:29:34.038Z,20.45
2022-08-24T05:31:13.495Z,20.55
2022-08-24T05:32:45.733Z,20.59
2022-08-24T05:34:19.019Z,20.63
2022-08-24T05:35:51.005Z,20.74
2022-08-24T05:37:23.066Z,20.75
2022-08-24T05:38:57.433Z,20.79
2022-08-24T05:40:33.313Z,20.81
2022-08-24T05:42:06.720Z,20.89
2022-08-24T05:43:39.799Z,20.92
2022-08-24T05:45:13.091Z,20.95
2022-08-24T05:46:45.363Z,21.00
2022-08-24T05:48:17.648Z,21.00
2022-08-24T05:49:53.452Z,21.05
2022-08-24T05:51:25.794Z,21.05
2022-08-24T05:52:57.988Z,21.08
2022-08-24T05:54:30.164Z,21.11
2022-08-24T05:56:07.143Z,21.17
2022-08-24T05:57:39.324Z,21.15
2022-08-24T05:59:11.875Z,21.22
2022-08-24T06:00:47.199Z,21.23
2022-08-24T06:02:20.457Z,21.26
2022-08-24T06:03:52.992Z,21.34
2022-08-24T06:05:25.486Z,21.30
2022-08-24T06:06:57.988Z,21.34
2022-08-24T06:08:31.568Z,21.36
2022-08-24T06:10:32.794Z,21.40
2022-08-24T06:11:56.391Z,21.44
2022-08-24T06:13:29.357Z,21.47
2022-08-24T06:15:01.473Z,21.49
2022-08-24T06:16:36.653Z,21.53
2022-08-24T06:18:09.164Z,21.52
2022-08-24T06:19:41.522Z,21.51
2022-08-24T06:21:17.533Z,21.57
2022-08-24T06:22:50.886Z,21.56
2022-08-24T06:24:46.556Z,21.60
2022-08-24T06:26:39.033Z,21.68
2022-08-24T06:28:11.294Z,21.73
2022-08-24T06:29:43.339Z,21.73
2022-08-24T06:31:16.259Z,21.75
2022-08-24T06:32:48.419Z,21.79
2022-08-24T06:34:21.038Z,21.83
2022-08-24T06:35:53.563Z,21.84
2022-08-24T06:37:29.336Z,21.86
2022-08-24T06:39:02.682Z,21.90
2022-08-24T06:40:34.889Z,21.93
2022-08-24T06:42:07.376Z,21.95
2022-08-24T06:43:39.670Z,22.01
2022-08-24T06:45:12.458Z,22.06
2022-08-24T06:46:44.926Z,22.05
2022-08-24T06:48:17.701Z,22.09
2022-08-24T06:49:49.807Z,22.11
2022-08-24T06:51:24.008Z,22.15
2022-08-24T06:52:56.164Z,22.16
2022-08-24T06:54:28.605Z,22.20
2022-08-24T06:56:01.453Z,22.27
2022-08-24T06:57:33.513Z,22.32
2022-08-24T06:59:06.300Z,22.34
2022-08-24T07:02:13.328Z,22.38
2022-08-24T07:03:45.976Z,22.36
2022-08-24T07:05:18.547Z,22.39
2022-08-24T07:06:51.186Z,22.42
2022-08-24T07:08:23.680Z,22.41
2022-08-24T07:09:55.887Z,22.43
2022-08-24T07:11:28.250Z,22.41
2022-08-24T07:13:00.750Z,22.44
2022-08-24T07:14:32.934Z,22.43
2022-08-24T07:16:05.367Z,22.48
2022-08-24T07:17:37.727Z,22.50
2022-08-24T07:19:09.761Z,22.52
2022-08-24T07:20:43.342Z,22.56
2022-08-24T07:24:01.436Z,22.57
2022-08-24T07:25:34.382Z,22.56
2022-08-24T07:27:07.394Z,22.59
2022-08-24T07:28:40.692Z,22.62
2022-08-24T07:30:28.020Z,22.66
2022-08-24T07:32:01.832Z,22.69
2022-08-24T07:33:34.259Z,22.71
2022-08-24T07:35:07.155Z,22.73
2022-08-24T07:36:44.565Z,22.76
2022-08-24T07:38:17.344Z,22.79
2022-08-24T07:39:49.587Z,22.83
2022-08-24T07:43:18.329Z,22.88
2022-08-24T07:44:50.981Z,22.88
2022-08-24T07:46:24.781Z,22.90
2022-08-24T07:48:05.171Z,22.88
2022-08-24T07:49:39.637Z,22.87
2022-08-24T07:51:14.668Z,22.89
2022-08-24T07:52:47.591Z,22.86
2022-08-24T07:54:21.184Z,22.87
2022-08-24T07:55:55.646Z,22.90
2022-08-24T07:57:28.117Z,22.88
2022-08-24T07:59:00.765Z,22.87
2022-08-24T08:00:33.293Z,22.88
2022-08-24T08:02:06.198Z,22.89
2022-08-24T08:03:38.686Z,22.90
2022-08-24T08:05:11.085Z,22.92
2022-08-24T08:06:43.425Z,22.93
2022-08-24T08:08:16.299Z,22.94
2022-08-24T08:09:49.941Z,22.95
2022-08-24T08:11:22.259Z,22.96
2022-08-24T08:12:54.306Z,22.92
2022-08-24T08:14:26.814Z,22.88
2022-08-24T08:16:00.193Z,22.89
2022-08-24T08:17:33.246Z,22.89
2022-08-24T08:19:12.995Z,22.91
2022-08-24T08:20:45.270Z,22.90
2022-08-24T08:22:35.994Z,22.90
2022-08-24T08:24:20.504Z,22.90
2022-08-24T08:25:55.103Z,22.93
2022-08-24T08:27:28.064Z,22.93
2022-08-24T08:29:00.511Z,22.93
2022-08-24T08:30:33.404Z,22.95
2022-08-24T08:32:06.016Z,22.94
2022-08-24T08:33:38.492Z,22.96
2022-08-24T08:35:11.141Z,22.98
2022-08-24T08:36:44.219Z,23.00
2022-08-24T08:38:16.908Z,23.03
2022-08-24T08:39:49.256Z,23.05
2022-08-24T08:41:27.398Z,23.09
2022-08-24T08:43:07.716Z,23.13
2022-08-24T08:44:58.737Z,23.11
2022-08-24T08:46:58.260Z,23.18
2022-08-24T08:48:40.521Z,23.20
2022-08-24T08:50:19.435Z,23.22
2022-08-24T08:52:25.165Z,23.24
2022-08-24T08:54:15.735Z,23.26
2022-08-24T08:56:04.377Z,23.25
2022-08-24T08:57:47.545Z,23.26
2022-08-24T08:59:38.204Z,23.28
2022-08-24T09:01:46.535Z,23.32
2022-08-24T09:03:40.667Z,23.36
2022-08-24T09:05:28.026Z,23.36
2022-08-24T09:07:09.870Z,23.39
2022-08-24T09:08:51.878Z,23.29
2022-08-24T09:10:33.006Z,23.35
2022-08-24T09:12:20.881Z,23.32
2022-08-24T09:14:07.583Z,23.29
2022-08-24T09:16:10.716Z,23.30
2022-08-24T09:18:14.335Z,23.28
2022-08-24T09:20:07.894Z,23.30
2022-08-24T09:21:54.294Z,23.29
2022-08-24T09:23:49.970Z,23.32
2022-08-24T09:25:29.899Z,23.29
2022-08-24T09:27:23.217Z,23.36
2022-08-24T09:29:12.484Z,23.28
2022-08-24T09:31:24.119Z,23.36
2022-08-24T09:33:15.847Z,23.38
2022-08-24T09:35:26.645Z,23.36
2022-08-24T09:37:12.872Z,23.37
2022-08-24T09:38:52.392Z,23.31
2022-08-24T09:41:01.864Z,23.33
2022-08-24T09:43:11.098Z,23.35
2022-08-24T09:45:05.983Z,23.35
2022-08-24T09:46:49.676Z,23.37
2022-08-24T09:48:27.636Z,23.38
2022-08-24T09:50:21.330Z,23.38
2022-08-24T09:52:09.581Z,23.39
2022-08-24T09:53:55.301Z,23.37
2022-08-24T09:55:45.622Z,23.36
2022-08-24T09:57:59.352Z,23.39
2022-08-24T09:59:56.143Z,23.42
2022-08-24T10:01:37.054Z,23.43
2022-08-24T10:03:16.304Z,23.49
2022-08-24T10:05:02.593Z,23.51
2022-08-24T10:06:46.535Z,23.59
2022-08-24T10:08:49.236Z,23.70
2022-08-24T10:10:40.117Z,23.75
2022-08-24T10:12:52.908Z,23.82
2022-08-24T10:14:56.535Z,23.90
2022-08-24T10:16:40.885Z,23.92
2022-08-24T10:18:50.851Z,23.94
2022-08-24T10:20:26.839Z,23.95
2022-08-24T10:22:08.361Z,23.96
2022-08-24T10:24:02.293Z,23.98
2022-08-24T10:25:47.419Z,24.00
2022-08-24T10:27:43.936Z,24.00
2022-08-24T10:29:49.989Z,24.02
2022-08-24T10:31:54.686Z,24.00
2022-08-24T10:33:29.929Z,24.02
2022-08-24T10:35:14.221Z,24.06
2022-08-24T10:37:14.244Z,24.08
2022-08-24T10:39:28.361Z,24.10
2022-08-24T10:41:39.316Z,24.12
2022-08-24T10:43:40.699Z,24.12
2022-08-24T10:45:18.034Z,24.09
2022-08-24T10:46:58.482Z,24.11
2022-08-24T10:48:33.263Z,24.15
2022-08-24T10:50:45.401Z,24.22
2022-08-24T10:52:55.852Z,24.27
2022-08-24T10:54:28.316Z,24.28
2022-08-24T10:56:16.947Z,24.32
2022-08-24T10:58:08.021Z,24.35
2022-08-24T10:59:51.691Z,24.39
2022-08-24T11:01:32.387Z,24.46
2022-08-24T11:03:14.692Z,24.56
2022-08-24T11:05:00.025Z,24.64
2022-08-24T11:06:37.330Z,24.72
2022-08-24T11:08:19.056Z,24.71
2022-08-24T11:09:56.303Z,24.73
2022-08-24T11:11:40.442Z,24.69
2022-08-24T11:13:19.000Z,24.72
2022-08-24T11:14:51.882Z,24.68
2022-08-24T11:16:33.253Z,24.67
2022-08-24T11:18:05.935Z,24.66
2022-08-24T11:19:38.376Z,24.66
2022-08-24T11:21:46.816Z,24.72
2022-08-24T11:23:25.527Z,24.75
2022-08-24T11:25:35.424Z,24.80
2022-08-24T11:27:25.386Z,24.90
2022-08-24T11:29:01.862Z,24.99
2022-08-24T11:30:39.767Z,25.02
2022-08-24T11:32:26.931Z,25.09
2022-08-24T11:34:11.586Z,25.12
2022-08-24T11:35:43.736Z,25.09
2022-08-24T11:37:16.404Z,25.15
2022-08-24T11:44:31.816Z,25.32
2022-08-24T11:46:32.013Z,25.44
2022-08-24T11:48:26.855Z,25.57
2022-08-24T11:50:27.639Z,25.61
2022-08-24T11:52:05.990Z,25.61
2022-08-24T11:53:50.728Z,25.59
2022-08-24T11:55:47.044Z,25.57
2022-08-24T11:57:27.068Z,25.51
2022-08-24T11:59:25.872Z,25.51
2022-08-24T12:01:07.721Z,25.53
2022-08-24T12:02:49.857Z,25.55
2022-08-24T12:04:22.501Z,25.50
2022-08-24T12:06:04.283Z,25.42
2022-08-24T12:07:59.554Z,25.29
2022-08-24T12:09:57.933Z,25.29
2022-08-24T12:12:14.981Z,25.16
2022-08-24T12:14:01.615Z,25.14
2022-08-24T12:15:43.534Z,25.11
2022-08-24T12:17:27.530Z,25.10
2022-08-24T12:19:08.970Z,25.05
2022-08-24T12:20:48.388Z,25.00
2022-08-24T12:22:21.606Z,24.99
2022-08-24T12:24:01.133Z,25.02
2022-08-24T12:25:52.974Z,24.98
2022-08-24T12:27:33.623Z,25.01
2022-08-24T12:29:16.662Z,25.05
2022-08-24T12:30:49.776Z,25.02
2022-08-24T13:08:42.305Z,25.24
2022-08-24T13:16:34.404Z,25.42
2022-08-24T13:18:10.351Z,25.41
2022-08-24T13:19:45.740Z,25.42
2022-08-24T13:21:37.616Z,25.46
2022-08-24T13:23:12.733Z,25.48
2022-08-24T13:24:59.376Z,25.52
2022-08-24T13:26:32.892Z,25.49
2022-08-24T13:28:09.867Z,25.53
2022-08-24T13:29:45.940Z,25.55
2022-08-24T13:31:36.481Z,25.58
2022-08-24T13:33:34.577Z,25.62
2022-08-24T13:35:49.008Z,25.64
2022-08-24T13:39:15.709Z,25.65
2022-08-24T13:40:52.095Z,25.64
2022-08-24T13:42:36.501Z,25.69
2022-08-24T13:44:49.460Z,25.73
2022-08-24T13:46:25.299Z,25.74
2022-08-24T13:48:00.712Z,25.75
2022-08-24T13:50:02.215Z,25.81
2022-08-24T13:51:46.184Z,25.79
2022-08-24T13:53:37.222Z,25.85
2022-08-24T13:56:04.724Z,25.84
2022-08-24T13:57:46.711Z,25.74
2022-08-24T13:59:43.861Z,25.77
2022-08-24T14:01:34.508Z,25.75
2022-08-24T14:03:24.711Z,25.79
2022-08-24T14:05:04.623Z,25.75
2022-08-24T14:06:42.647Z,25.75
2022-08-24T14:08:26.247Z,25.77
2022-08-24T14:10:04.496Z,25.77
2022-08-24T14:11:45.541Z,25.73
2022-08-24T14:13:50.356Z,25.73
2022-08-24T14:15:51.535Z,25.72
2022-08-24T14:17:53.783Z,25.68
2022-08-24T14:20:05.817Z,25.72
2022-08-24T14:21:46.085Z,25.70
2022-08-24T14:23:36.824Z,25.66
2022-08-24T14:25:15.143Z,25.68
2022-08-24T14:26:52.324Z,25.63
2022-08-24T14:28:25.223Z,25.61
2022-08-24T14:30:20.090Z,25.65
2022-08-24T14:32:00.012Z,25.64
2022-08-24T14:33:50.942Z,25.64
2022-08-24T14:35:47.551Z,25.61
2022-08-24T14:37:41.217Z,25.60
2022-08-24T14:39:42.175Z,25.58
2022-08-24T14:41:47.557Z,25.58
2022-08-24T14:43:31.422Z,25.58
2022-08-24T14:45:10.767Z,25.57
2022-08-24T14:47:05.695Z,25.60
2022-08-24T14:48:54.905Z,25.57
2022-08-24T14:50:36.845Z,25.55
2022-08-24T14:52:22.262Z,25.54
2022-08-24T14:54:04.248Z,25.53
2022-08-24T14:55:48.059Z,25.52
2022-08-24T14:57:45.252Z,25.52
2022-08-24T14:59:36.087Z,25.54
2022-08-24T15:01:39.410Z,25.59
2022-08-24T15:03:52.599Z,25.67
2022-08-24T15:05:41.322Z,25.75
2022-08-24T15:07:30.807Z,25.80
2022-08-24T15:09:12.073Z,25.86
2022-08-24T15:10:47.108Z,25.89
2022-08-24T15:12:38.248Z,25.92
2022-08-24T15:14:30.068Z,25.95
2022-08-24T15:16:17.500Z,25.96
2022-08-24T15:18:09.669Z,25.94
2022-08-24T15:19:48.167Z,25.96
2022-08-24T15:21:44.655Z,25.99
2022-08-24T15:23:26.025Z,25.98
2022-08-24T15:25:07.697Z,25.97
2022-08-24T15:26:51.053Z,25.97
2022-08-24T15:28:29.889Z,25.95
2022-08-24T15:30:06.199Z,25.95
2022-08-24T15:31:39.446Z,25.93
2022-08-24T15:33:19.374Z,25.96
2022-08-24T15:34:58.581Z,25.94
2022-08-24T15:36:33.503Z,25.90
2022-08-24T15:38:25.196Z,25.89
2022-08-24T15:40:02.524Z,25.85
2022-08-24T15:41:39.243Z,25.84
2022-08-24T15:43:12.303Z,25.80
2022-08-24T15:44:48.038Z,25.79
2022-08-24T15:46:42.336Z,25.75
2022-08-24T15:48:18.193Z,25.74
2022-08-24T15:50:00.455Z,25.72
2022-08-24T15:51:47.135Z,25.68
2022-08-24T15:53:29.972Z,25.68
2022-08-24T15:55:04.772Z,25.68
2022-08-24T15:56:45.169Z,25.63
2022-08-24T15:58:27.348Z,25.64
2022-08-24T16:00:40.510Z,25.68
2022-08-24T16:02:31.289Z,25.68
2022-08-24T16:04:06.156Z,25.71
2022-08-24T16:05:38.780Z,25.69
2022-08-24T16:07:23.773Z,25.71
2022-08-24T16:09:05.567Z,25.71
2022-08-24T16:10:50.976Z,25.72
2022-08-24T16:12:23.702Z,25.68
2022-08-24T16:13:56.071Z,25.67
2022-08-24T16:15:28.205Z,25.63
2022-08-24T16:17:02.408Z,25.65
2022-08-24T16:18:46.584Z,25.67
2022-08-24T16:20:24.647Z,25.65
2022-08-24T16:22:03.648Z,25.65
2022-08-24T16:23:36.488Z,25.63
2022-08-24T16:25:23.892Z,25.63
2022-08-24T16:27:15.283Z,25.60
2022-08-24T16:28:48.245Z,25.55
2022-08-24T16:30:23.413Z,25.55
2022-08-24T16:32:05.398Z,25.55
2022-08-24T16:33:44.254Z,25.49
2022-08-24T16:35:21.202Z,25.49
2022-08-24T16:36:53.568Z,25.44
2022-08-24T16:38:30.144Z,25.46
2022-08-24T16:40:02.450Z,25.42
2022-08-24T16:41:39.087Z,25.39
2022-08-24T16:43:11.376Z,25.35
2022-08-24T16:44:44.767Z,25.35
2022-08-24T16:46:22.682Z,25.32
2022-08-24T16:47:54.940Z,25.29
2022-08-24T16:49:27.027Z,25.27
2022-08-24T16:50:59.662Z,25.26
2022-08-24T16:52:31.994Z,25.20
2022-08-24T16:54:04.454Z,25.17
2022-08-24T16:55:36.650Z,25.15
2022-08-24T16:57:17.616Z,25.13
2022-08-24T16:58:49.728Z,25.08
2022-08-24T17:00:22.582Z,25.03
2022-08-24T17:01:54.873Z,25.00
2022-08-24T17:03:27.216Z,24.96
2022-08-24T17:04:59.486Z,24.94
2022-08-24T17:06:31.849Z,24.94
2022-08-24T17:08:04.741Z,24.92
2022-08-24T17:09:42.007Z,24.92
2022-08-24T17:11:15.047Z,24.90
2022-08-24T17:12:47.083Z,24.84
2022-08-24T17:15:53.919Z,24.75
2022-08-24T17:17:26.331Z,24.71
2022-08-24T17:18:59.271Z,24.69
2022-08-24T17:20:31.902Z,24.63
2022-08-24T17:22:05.372Z,24.60
2022-08-24T17:23:37.790Z,24.54
2022-08-24T17:25:09.986Z,24.52
2022-08-24T17:26:45.660Z,24.49
2022-08-24T17:28:20.808Z,24.45
2022-08-24T17:29:53.437Z,24.43
2022-08-24T17:31:29.618Z,24.42
2022-08-24T17:33:03.948Z,24.40
2022-08-24T17:34:36.260Z,24.38
2022-08-24T17:36:15.589Z,24.37
2022-08-24T17:37:50.207Z,24.35
2022-08-24T17:39:26.660Z,24.33
2022-08-24T17:41:01.345Z,24.30
2022-08-24T17:42:50.364Z,24.27
2022-08-24T17:44:26.683Z,24.26
2022-08-24T17:45:59.816Z,24.22
2022-08-24T17:47:32.557Z,24.24
2022-08-24T17:49:05.688Z,24.15
2022-08-24T17:50:37.858Z,24.18
2022-08-24T17:52:10.104Z,24.11
2022-08-24T17:53:42.458Z,24.05
2022-08-24T17:55:15.498Z,24.03
2022-08-24T17:56:51.326Z,24.01
2022-08-24T17:58:24.660Z,23.98
2022-08-24T17:59:57.554Z,23.93
2022-08-24T18:01:30.366Z,23.91
2022-08-24T18:03:02.706Z,23.88
2022-08-24T18:04:36.312Z,23.83
2022-08-24T18:06:08.697Z,23.79
2022-08-24T18:07:52.979Z,23.79
2022-08-24T18:09:35.328Z,23.75
2022-08-24T18:11:09.301Z,23.70
2022-08-24T18:12:41.574Z,23.68
2022-08-24T18:14:13.951Z,23.63
2022-08-24T18:15:46.619Z,23.55
2022-08-24T18:17:22.866Z,23.54
2022-08-24T18:18:55.620Z,23.49
2022-08-24T18:20:31.644Z,23.49
2022-08-24T18:22:05.144Z,23.44
2022-08-24T18:23:43.629Z,23.42
2022-08-24T18:25:18.163Z,23.40
2022-08-24T18:26:50.688Z,23.40
2022-08-24T18:28:23.658Z,23.39
2022-08-24T18:29:59.541Z,23.38
2022-08-24T18:31:36.008Z,23.36
2022-08-24T18:33:08.639Z,23.33
2022-08-24T18:34:41.387Z,23.31
2022-08-24T18:36:13.575Z,23.25
2022-08-24T18:37:46.092Z,23.21
2022-08-24T18:39:19.380Z,23.17
2022-08-24T18:40:52.716Z,23.12
2022-08-24T18:42:26.424Z,23.12
2022-08-24T18:43:59.733Z,23.09
2022-08-24T18:45:33.785Z,23.06
2022-08-24T18:47:06.890Z,22.99
2022-08-24T18:48:39.120Z,22.92
2022-08-24T18:50:12.074Z,22.92
2022-08-24T18:51:49.585Z,22.92
2022-08-24T18:53:24.466Z,22.90
2022-08-24T18:54:57.092Z,22.85
2022-08-24T18:56:29.344Z,22.82
2022-08-24T18:58:01.652Z,22.81
2022-08-24T18:59:35.799Z,22.77
2022-08-24T19:01:13.366Z,22.74
2022-08-24T19:02:46.030Z,22.71
2022-08-24T19:04:18.533Z,22.69
2022-08-24T19:05:56.093Z,22.67
2022-08-24T19:07:30.286Z,22.67
2022-08-24T19:09:02.297Z,22.63
2022-08-24T19:10:37.339Z,22.63
2022-08-24T19:12:10.002Z,22.57
2022-08-24T19:13:42.224Z,22.55
2022-08-24T19:15:29.188Z,22.53
2022-08-24T19:17:08.266Z,22.52
2022-08-24T19:18:40.504Z,22.49
2022-08-24T19:20:13.307Z,22.50
2022-08-24T19:21:45.661Z,22.48
2022-08-24T19:23:23.938Z,22.43
2022-08-24T19:24:56.544Z,22.37
2022-08-24T19:26:29.951Z,22.36
2022-08-24T19:28:02.287Z,22.29
2022-08-24T19:30:03.114Z,22.29
2022-08-24T19:31:29.099Z,22.30
2022-08-24T19:33:02.448Z,22.31
2022-08-24T19:34:34.825Z,22.27
2022-08-24T19:36:07.546Z,22.27
2022-08-24T19:37:40.264Z,22.26
2022-08-24T19:39:12.602Z,22.23
2022-08-24T19:40:49.874Z,22.25
2022-08-24T19:42:22.477Z,22.22
2022-08-24T19:44:23.398Z,22.23
2022-08-24T19:46:03.473Z,22.23
2022-08-24T19:47:35.987Z,22.23
2022-08-24T19:49:08.687Z,22.22
2022-08-24T19:50:41.237Z,22.21
2022-08-24T19:52:14.078Z,22.21
2022-08-24T19:53:46.545Z,22.22
2022-08-24T19:55:18.630Z,22.18
2022-08-24T19:56:53.383Z,22.19
2022-08-24T19:58:39.372Z,22.19
2022-08-24T20:00:29.924Z,22.19
2022-08-24T20:02:02.165Z,22.11
2022-08-24T20:03:34.511Z,22.12
2022-08-24T20:05:07.026Z,22.10
2022-08-24T20:06:41.210Z,22.10
2022-08-24T20:08:14.504Z,22.06
2022-08-24T20:09:46.520Z,22.07
2022-08-24T20:11:19.393Z,22.08
2022-08-24T20:12:52.326Z,22.05
2022-08-24T20:14:25.134Z,22.04
2022-08-24T20:15:58.219Z,22.02
2022-08-24T20:17:30.695Z,22.05
2022-08-24T20:19:04.056Z,22.06
2022-08-24T20:20:36.559Z,22.03
2022-08-24T20:22:13.244Z,22.03
2022-08-24T20:23:46.023Z,22.01
2022-08-24T20:25:19.042Z,22.02
2022-08-24T20:26:51.703Z,22.04
2022-08-24T20:28:29.065Z,22.05
2022-08-24T20:30:01.819Z,22.02
2022-08-24T20:31:35.233Z,21.97
2022-08-24T20:33:15.170Z,22.01
2022-08-24T20:34:47.335Z,21.98
2022-08-24T20:36:25.320Z,21.99
2022-08-24T20:37:57.501Z,21.95
2022-08-24T20:39:29.505Z,21.93
2022-08-24T20:41:02.399Z,21.95
2022-08-24T20:42:34.687Z,21.95
2022-08-24T20:44:09.914Z,21.93
2022-08-24T20:45:42.566Z,21.91
2022-08-24T20:47:15.607Z,21.93
2022-08-24T20:48:55.696Z,21.89
2022-08-24T20:50:29.925Z,21.86
2022-08-24T20:52:01.946Z,21.85
2022-08-24T20:53:35.766Z,21.87
2022-08-24T20:55:08.268Z,21.84
2022-08-24T20:56:40.364Z,21.82
2022-08-24T20:58:12.807Z,21.81
2022-08-24T20:59:45.654Z,21.79
2022-08-24T21:01:18.798Z,21.77
2022-08-24T21:02:52.229Z,21.78
2022-08-24T21:04:25.655Z,21.77
2022-08-24T21:06:01.482Z,21.78
2022-08-24T21:07:33.762Z,21.75
2022-08-24T21:09:06.760Z,21.76
2022-08-24T21:10:42.807Z,21.73
